sensor_id;sensor_type;location;lat;lon;timestamp;P1;durP1;ratioP1;P2;durP2;ratioP2
72935;SDS011;61085;48.804;9.228;2022-07-29T00:02:13;9.10;;;8.30;;
72935;SDS011;61085;48.804;9.228;2022-07-29T00:04:39;8.57;;;7.97;;
72935;SDS011;61085;48.804;9.228;2022-07-29T00:07:05;9.30;;;8.60;;
72935;SDS011;61085;48.804;9.228;2022-07-29T00:09:31;9.20;;;8.50;;
72935;SDS011;61085;48.804;9.228;2022-07-29T00:11:58;8.70;;;8.00;;
72935;SDS011;61085;48.804;9.228;2022-07-29T00:14:25;7.53;;;7.03;;
72935;SDS011;61085;48.804;9.228;2022-07-29T00:16:51;7.82;;;7.15;;
72935;SDS011;61085;48.804;9.228;2022-07-29T00:19:17;7.60;;;7.00;;
72935;SDS011;61085;48.804;9.228;2022-07-29T00:21:42;8.30;;;7.50;;
72935;SDS011;61085;48.804;9.228;2022-07-29T00:24:08;7.40;;;6.90;;
72935;SDS011;61085;48.804;9.228;2022-07-29T00:26:34;8.03;;;7.40;;
72935;SDS011;61085;48.804;9.228;2022-07-29T00:29:00;8.07;;;6.90;;
72935;SDS011;61085;48.804;9.228;2022-07-29T00:31:27;7.90;;;7.40;;
72935;SDS011;61085;48.804;9.228;2022-07-29T00:33:52;8.30;;;7.60;;
72935;SDS011;61085;48.804;9.228;2022-07-29T00:36:18;7.70;;;7.13;;
72935;SDS011;61085;48.804;9.228;2022-07-29T00:38:46;8.10;;;7.50;;
72935;SDS011;61085;48.804;9.228;2022-07-29T00:41:15;8.20;;;7.60;;
72935;SDS011;61085;48.804;9.228;2022-07-29T00:43:41;7.63;;;7.13;;
72935;SDS011;61085;48.804;9.228;2022-07-29T00:46:07;7.78;;;7.28;;
72935;SDS011;61085;48.804;9.228;2022-07-29T00:48:33;8.83;;;7.93;;
72935;SDS011;61085;48.804;9.228;2022-07-29T00:50:59;8.10;;;7.50;;
72935;SDS011;61085;48.804;9.228;2022-07-29T00:53:27;8.20;;;7.45;;
72935;SDS011;61085;48.804;9.228;2022-07-29T00:55:53;8.40;;;7.60;;
72935;SDS011;61085;48.804;9.228;2022-07-29T00:58:20;9.13;;;8.40;;
72935;SDS011;61085;48.804;9.228;2022-07-29T01:00:46;8.30;;;7.60;;
72935;SDS011;61085;48.804;9.228;2022-07-29T01:03:12;8.13;;;6.93;;
72935;SDS011;61085;48.804;9.228;2022-07-29T01:05:37;8.93;;;8.23;;
72935;SDS011;61085;48.804;9.228;2022-07-29T01:08:06;7.40;;;6.90;;
72935;SDS011;61085;48.804;9.228;2022-07-29T01:10:32;10.30;;;9.30;;
72935;SDS011;61085;48.804;9.228;2022-07-29T01:12:59;9.75;;;8.43;;
72935;SDS011;61085;48.804;9.228;2022-07-29T01:15:26;9.57;;;8.77;;
72935;SDS011;61085;48.804;9.228;2022-07-29T01:18:07;9.37;;;8.67;;
72935;SDS011;61085;48.804;9.228;2022-07-29T01:31:31;8.50;;;7.90;;
72935;SDS011;61085;48.804;9.228;2022-07-29T01:34:21;8.20;;;7.70;;
72935;SDS011;61085;48.804;9.228;2022-07-29T01:37:03;7.97;;;7.38;;
72935;SDS011;61085;48.804;9.228;2022-07-29T01:39:49;8.40;;;7.75;;
72935;SDS011;61085;48.804;9.228;2022-07-29T01:42:23;8.35;;;7.75;;
72935;SDS011;61085;48.804;9.228;2022-07-29T01:47:34;8.63;;;8.02;;
72935;SDS011;61085;48.804;9.228;2022-07-29T01:50:05;7.97;;;7.47;;
72935;SDS011;61085;48.804;9.228;2022-07-29T01:55:28;8.48;;;7.82;;
72935;SDS011;61085;48.804;9.228;2022-07-29T01:57:56;8.82;;;8.25;;
72935;SDS011;61085;48.804;9.228;2022-07-29T02:00:24;9.90;;;8.90;;
72935;SDS011;61085;48.804;9.228;2022-07-29T02:02:51;9.68;;;8.85;;
72935;SDS011;61085;48.804;9.228;2022-07-29T02:05:20;9.00;;;8.30;;
72935;SDS011;61085;48.804;9.228;2022-07-29T02:07:48;8.23;;;7.63;;
72935;SDS011;61085;48.804;9.228;2022-07-29T02:10:17;8.65;;;8.05;;
72935;SDS011;61085;48.804;9.228;2022-07-29T02:12:46;8.80;;;8.15;;
72935;SDS011;61085;48.804;9.228;2022-07-29T02:15:13;7.80;;;7.40;;
72935;SDS011;61085;48.804;9.228;2022-07-29T02:17:42;7.63;;;7.13;;
72935;SDS011;61085;48.804;9.228;2022-07-29T02:20:13;7.38;;;6.88;;
72935;SDS011;61085;48.804;9.228;2022-07-29T02:22:40;8.50;;;7.70;;
72935;SDS011;61085;48.804;9.228;2022-07-29T02:25:08;7.43;;;7.05;;
72935;SDS011;61085;48.804;9.228;2022-07-29T02:27:35;8.20;;;7.50;;
72935;SDS011;61085;48.804;9.228;2022-07-29T02:30:03;7.45;;;6.95;;
72935;SDS011;61085;48.804;9.228;2022-07-29T02:32:30;7.50;;;7.00;;
72935;SDS011;61085;48.804;9.228;2022-07-29T02:34:59;7.63;;;7.03;;
72935;SDS011;61085;48.804;9.228;2022-07-29T02:37:26;6.82;;;6.43;;
72935;SDS011;61085;48.804;9.228;2022-07-29T02:39:54;7.20;;;6.80;;
72935;SDS011;61085;48.804;9.228;2022-07-29T02:42:21;8.05;;;7.35;;
72935;SDS011;61085;48.804;9.228;2022-07-29T02:44:49;6.82;;;6.25;;
72935;SDS011;61085;48.804;9.228;2022-07-29T02:57:36;6.47;;;6.13;;
72935;SDS011;61085;48.804;9.228;2022-07-29T03:00:09;7.38;;;6.88;;
72935;SDS011;61085;48.804;9.228;2022-07-29T03:02:38;8.35;;;6.40;;
72935;SDS011;61085;48.804;9.228;2022-07-29T03:05:09;6.88;;;6.38;;
72935;SDS011;61085;48.804;9.228;2022-07-29T03:07:40;6.35;;;5.95;;
72935;SDS011;61085;48.804;9.228;2022-07-29T03:10:10;7.28;;;6.68;;
72935;SDS011;61085;48.804;9.228;2022-07-29T03:12:37;8.77;;;6.15;;
72935;SDS011;61085;48.804;9.228;2022-07-29T03:15:03;7.93;;;7.20;;
72935;SDS011;61085;48.804;9.228;2022-07-29T03:17:29;7.38;;;6.93;;
72935;SDS011;61085;48.804;9.228;2022-07-29T03:19:56;7.00;;;6.50;;
72935;SDS011;61085;48.804;9.228;2022-07-29T03:22:22;6.65;;;6.35;;
72935;SDS011;61085;48.804;9.228;2022-07-29T03:24:49;9.18;;;8.25;;
72935;SDS011;61085;48.804;9.228;2022-07-29T03:27:14;6.27;;;5.87;;
72935;SDS011;61085;48.804;9.228;2022-07-29T03:29:40;7.57;;;7.10;;
72935;SDS011;61085;48.804;9.228;2022-07-29T03:32:06;7.83;;;7.13;;
72935;SDS011;61085;48.804;9.228;2022-07-29T03:34:31;8.50;;;7.20;;
72935;SDS011;61085;48.804;9.228;2022-07-29T03:36:57;6.97;;;6.50;;
72935;SDS011;61085;48.804;9.228;2022-07-29T03:39:24;7.33;;;6.73;;
72935;SDS011;61085;48.804;9.228;2022-07-29T03:41:55;6.55;;;6.25;;
72935;SDS011;61085;48.804;9.228;2022-07-29T03:44:22;6.85;;;6.10;;
72935;SDS011;61085;48.804;9.228;2022-07-29T03:46:51;7.38;;;6.82;;
72935;SDS011;61085;48.804;9.228;2022-07-29T03:49:19;7.15;;;6.47;;
72935;SDS011;61085;48.804;9.228;2022-07-29T03:51:46;7.57;;;6.00;;
72935;SDS011;61085;48.804;9.228;2022-07-29T03:54:13;6.70;;;6.30;;
72935;SDS011;61085;48.804;9.228;2022-07-29T03:56:42;6.87;;;6.47;;
72935;SDS011;61085;48.804;9.228;2022-07-29T03:59:15;7.55;;;7.00;;
72935;SDS011;61085;48.804;9.228;2022-07-29T04:01:43;7.20;;;6.72;;
72935;SDS011;61085;48.804;9.228;2022-07-29T04:04:09;7.88;;;7.28;;
72935;SDS011;61085;48.804;9.228;2022-07-29T04:06:42;7.23;;;6.67;;
72935;SDS011;61085;48.804;9.228;2022-07-29T04:09:09;7.95;;;7.18;;
72935;SDS011;61085;48.804;9.228;2022-07-29T04:11:36;7.22;;;6.68;;
72935;SDS011;61085;48.804;9.228;2022-07-29T04:14:03;7.30;;;6.90;;
72935;SDS011;61085;48.804;9.228;2022-07-29T04:16:29;8.20;;;7.60;;
72935;SDS011;61085;48.804;9.228;2022-07-29T04:18:54;8.30;;;7.50;;
72935;SDS011;61085;48.804;9.228;2022-07-29T04:21:20;6.80;;;6.40;;
72935;SDS011;61085;48.804;9.228;2022-07-29T04:23:46;6.40;;;6.00;;
72935;SDS011;61085;48.804;9.228;2022-07-29T04:26:15;7.43;;;6.85;;
72935;SDS011;61085;48.804;9.228;2022-07-29T04:28:41;6.82;;;6.30;;
72935;SDS011;61085;48.804;9.228;2022-07-29T04:31:07;6.68;;;6.15;;
72935;SDS011;61085;48.804;9.228;2022-07-29T04:33:33;6.10;;;5.70;;
72935;SDS011;61085;48.804;9.228;2022-07-29T04:35:59;6.40;;;6.00;;
72935;SDS011;61085;48.804;9.228;2022-07-29T04:38:25;7.67;;;6.90;;
72935;SDS011;61085;48.804;9.228;2022-07-29T04:40:50;6.00;;;5.60;;
72935;SDS011;61085;48.804;9.228;2022-07-29T04:43:16;6.30;;;5.90;;
72935;SDS011;61085;48.804;9.228;2022-07-29T04:45:41;5.80;;;5.40;;
72935;SDS011;61085;48.804;9.228;2022-07-29T04:48:07;5.93;;;5.63;;
72935;SDS011;61085;48.804;9.228;2022-07-29T04:50:33;6.03;;;5.70;;
72935;SDS011;61085;48.804;9.228;2022-07-29T04:52:59;6.07;;;5.57;;
72935;SDS011;61085;48.804;9.228;2022-07-29T04:55:24;5.70;;;5.30;;
72935;SDS011;61085;48.804;9.228;2022-07-29T04:57:50;5.20;;;4.80;;
72935;SDS011;61085;48.804;9.228;2022-07-29T05:00:16;6.30;;;5.70;;
72935;SDS011;61085;48.804;9.228;2022-07-29T05:02:42;5.27;;;4.87;;
72935;SDS011;61085;48.804;9.228;2022-07-29T05:05:08;4.60;;;4.30;;
72935;SDS011;61085;48.804;9.228;2022-07-29T05:07:34;6.00;;;4.87;;
72935;SDS011;61085;48.804;9.228;2022-07-29T05:09:59;4.83;;;4.50;;
72935;SDS011;61085;48.804;9.228;2022-07-29T05:12:25;7.67;;;4.70;;
72935;SDS011;61085;48.804;9.228;2022-07-29T05:14:51;12.00;;;5.37;;
72935;SDS011;61085;48.804;9.228;2022-07-29T05:17:17;4.00;;;3.60;;
72935;SDS011;61085;48.804;9.228;2022-07-29T05:19:42;4.70;;;4.40;;
72935;SDS011;61085;48.804;9.228;2022-07-29T05:22:08;5.43;;;4.77;;
72935;SDS011;61085;48.804;9.228;2022-07-29T05:24:34;4.80;;;4.40;;
72935;SDS011;61085;48.804;9.228;2022-07-29T05:26:59;5.37;;;4.87;;
72935;SDS011;61085;48.804;9.228;2022-07-29T05:29:25;5.40;;;4.90;;
72935;SDS011;61085;48.804;9.228;2022-07-29T05:31:51;6.40;;;5.63;;
72935;SDS011;61085;48.804;9.228;2022-07-29T05:34:18;7.23;;;6.00;;
72935;SDS011;61085;48.804;9.228;2022-07-29T05:36:44;6.93;;;6.23;;
72935;SDS011;61085;48.804;9.228;2022-07-29T05:39:10;5.10;;;4.90;;
72935;SDS011;61085;48.804;9.228;2022-07-29T05:41:36;6.13;;;5.53;;
72935;SDS011;61085;48.804;9.228;2022-07-29T05:44:01;10.83;;;5.47;;
72935;SDS011;61085;48.804;9.228;2022-07-29T05:46:27;6.20;;;5.70;;
72935;SDS011;61085;48.804;9.228;2022-07-29T05:48:53;5.80;;;4.77;;
72935;SDS011;61085;48.804;9.228;2022-07-29T05:51:19;5.23;;;4.63;;
72935;SDS011;61085;48.804;9.228;2022-07-29T05:53:44;5.00;;;4.70;;
72935;SDS011;61085;48.804;9.228;2022-07-29T05:56:10;4.57;;;4.17;;
72935;SDS011;61085;48.804;9.228;2022-07-29T05:58:35;4.23;;;3.47;;
72935;SDS011;61085;48.804;9.228;2022-07-29T06:01:01;4.43;;;4.13;;
72935;SDS011;61085;48.804;9.228;2022-07-29T06:03:27;5.00;;;4.17;;
72935;SDS011;61085;48.804;9.228;2022-07-29T06:05:53;5.33;;;3.47;;
72935;SDS011;61085;48.804;9.228;2022-07-29T06:08:19;5.30;;;4.03;;
72935;SDS011;61085;48.804;9.228;2022-07-29T06:10:44;3.53;;;3.30;;
72935;SDS011;61085;48.804;9.228;2022-07-29T06:13:10;3.97;;;3.60;;
72935;SDS011;61085;48.804;9.228;2022-07-29T06:15:36;3.93;;;3.63;;
72935;SDS011;61085;48.804;9.228;2022-07-29T06:18:02;4.30;;;3.90;;
72935;SDS011;61085;48.804;9.228;2022-07-29T06:20:28;3.90;;;3.60;;
72935;SDS011;61085;48.804;9.228;2022-07-29T06:22:55;4.60;;;3.97;;
72935;SDS011;61085;48.804;9.228;2022-07-29T06:25:21;7.03;;;4.50;;
72935;SDS011;61085;48.804;9.228;2022-07-29T06:27:46;4.37;;;3.90;;
72935;SDS011;61085;48.804;9.228;2022-07-29T06:30:12;3.93;;;3.63;;
72935;SDS011;61085;48.804;9.228;2022-07-29T06:32:38;4.30;;;4.00;;
72935;SDS011;61085;48.804;9.228;2022-07-29T06:35:04;3.80;;;3.60;;
72935;SDS011;61085;48.804;9.228;2022-07-29T06:37:30;4.70;;;4.33;;
72935;SDS011;61085;48.804;9.228;2022-07-29T06:39:56;4.37;;;3.97;;
72935;SDS011;61085;48.804;9.228;2022-07-29T06:42:43;4.97;;;3.90;;
72935;SDS011;61085;48.804;9.228;2022-07-29T06:45:10;3.77;;;3.57;;
72935;SDS011;61085;48.804;9.228;2022-07-29T06:47:36;5.23;;;4.00;;
72935;SDS011;61085;48.804;9.228;2022-07-29T06:50:02;4.33;;;3.80;;
72935;SDS011;61085;48.804;9.228;2022-07-29T06:52:28;4.00;;;3.53;;
72935;SDS011;61085;48.804;9.228;2022-07-29T06:54:54;4.30;;;3.83;;
72935;SDS011;61085;48.804;9.228;2022-07-29T06:57:20;9.73;;;3.83;;
72935;SDS011;61085;48.804;9.228;2022-07-29T06:59:46;4.27;;;3.87;;
72935;SDS011;61085;48.804;9.228;2022-07-29T07:02:12;3.57;;;3.27;;
72935;SDS011;61085;48.804;9.228;2022-07-29T07:04:38;4.17;;;3.77;;
72935;SDS011;61085;48.804;9.228;2022-07-29T07:07:03;4.03;;;3.83;;
72935;SDS011;61085;48.804;9.228;2022-07-29T07:09:29;4.27;;;3.87;;
72935;SDS011;61085;48.804;9.228;2022-07-29T07:11:54;4.17;;;3.40;;
72935;SDS011;61085;48.804;9.228;2022-07-29T07:14:20;3.43;;;3.23;;
72935;SDS011;61085;48.804;9.228;2022-07-29T07:16:46;4.60;;;4.20;;
72935;SDS011;61085;48.804;9.228;2022-07-29T07:19:11;8.03;;;4.30;;
72935;SDS011;61085;48.804;9.228;2022-07-29T07:21:37;3.83;;;3.63;;
72935;SDS011;61085;48.804;9.228;2022-07-29T07:24:03;5.03;;;3.53;;
72935;SDS011;61085;48.804;9.228;2022-07-29T07:26:28;3.30;;;3.10;;
72935;SDS011;61085;48.804;9.228;2022-07-29T07:28:54;4.10;;;3.70;;
72935;SDS011;61085;48.804;9.228;2022-07-29T07:31:20;3.70;;;3.50;;
72935;SDS011;61085;48.804;9.228;2022-07-29T07:33:45;4.50;;;3.73;;
72935;SDS011;61085;48.804;9.228;2022-07-29T07:36:11;3.87;;;3.57;;
72935;SDS011;61085;48.804;9.228;2022-07-29T07:38:37;5.60;;;3.53;;
72935;SDS011;61085;48.804;9.228;2022-07-29T07:41:03;3.60;;;3.40;;
72935;SDS011;61085;48.804;9.228;2022-07-29T07:43:28;5.90;;;4.33;;
72935;SDS011;61085;48.804;9.228;2022-07-29T07:45:54;4.00;;;3.80;;
72935;SDS011;61085;48.804;9.228;2022-07-29T07:48:19;4.90;;;3.80;;
72935;SDS011;61085;48.804;9.228;2022-07-29T07:50:45;3.30;;;3.10;;
72935;SDS011;61085;48.804;9.228;2022-07-29T07:53:11;3.53;;;3.30;;
72935;SDS011;61085;48.804;9.228;2022-07-29T07:55:40;4.43;;;3.27;;
72935;SDS011;61085;48.804;9.228;2022-07-29T07:58:07;7.80;;;4.20;;
72935;SDS011;61085;48.804;9.228;2022-07-29T08:00:33;4.40;;;3.97;;
72935;SDS011;61085;48.804;9.228;2022-07-29T08:02:59;3.70;;;3.40;;
72935;SDS011;61085;48.804;9.228;2022-07-29T08:05:25;3.57;;;3.37;;
72935;SDS011;61085;48.804;9.228;2022-07-29T08:07:50;3.80;;;3.50;;
72935;SDS011;61085;48.804;9.228;2022-07-29T08:10:16;4.60;;;3.40;;
72935;SDS011;61085;48.804;9.228;2022-07-29T08:13:07;3.47;;;3.20;;
72935;SDS011;61085;48.804;9.228;2022-07-29T08:15:34;4.07;;;3.77;;
72935;SDS011;61085;48.804;9.228;2022-07-29T08:18:00;8.47;;;3.10;;
72935;SDS011;61085;48.804;9.228;2022-07-29T08:20:27;3.93;;;3.70;;
72935;SDS011;61085;48.804;9.228;2022-07-29T08:22:52;4.17;;;3.80;;
72935;SDS011;61085;48.804;9.228;2022-07-29T08:25:18;3.60;;;3.40;;
72935;SDS011;61085;48.804;9.228;2022-07-29T08:27:46;4.10;;;3.40;;
72935;SDS011;61085;48.804;9.228;2022-07-29T08:30:12;3.73;;;3.27;;
72935;SDS011;61085;48.804;9.228;2022-07-29T08:32:37;3.40;;;3.20;;
72935;SDS011;61085;48.804;9.228;2022-07-29T08:35:03;4.73;;;3.70;;
72935;SDS011;61085;48.804;9.228;2022-07-29T08:37:29;5.60;;;3.67;;
72935;SDS011;61085;48.804;9.228;2022-07-29T08:39:55;3.90;;;3.60;;
72935;SDS011;61085;48.804;9.228;2022-07-29T08:42:20;5.30;;;3.50;;
72935;SDS011;61085;48.804;9.228;2022-07-29T08:44:48;7.37;;;4.20;;
72935;SDS011;61085;48.804;9.228;2022-07-29T08:47:15;5.10;;;3.83;;
72935;SDS011;61085;48.804;9.228;2022-07-29T08:49:41;4.67;;;4.17;;
72935;SDS011;61085;48.804;9.228;2022-07-29T08:52:09;4.20;;;3.90;;
72935;SDS011;61085;48.804;9.228;2022-07-29T08:54:36;4.70;;;4.30;;
72935;SDS011;61085;48.804;9.228;2022-07-29T08:57:03;4.57;;;4.17;;
72935;SDS011;61085;48.804;9.228;2022-07-29T08:59:30;4.20;;;3.80;;
72935;SDS011;61085;48.804;9.228;2022-07-29T09:01:58;4.20;;;3.90;;
72935;SDS011;61085;48.804;9.228;2022-07-29T09:04:27;4.00;;;3.70;;
72935;SDS011;61085;48.804;9.228;2022-07-29T09:06:56;4.73;;;4.40;;
72935;SDS011;61085;48.804;9.228;2022-07-29T09:09:26;4.63;;;4.33;;
72935;SDS011;61085;48.804;9.228;2022-07-29T09:11:51;4.23;;;4.03;;
72935;SDS011;61085;48.804;9.228;2022-07-29T09:14:18;4.80;;;4.50;;
72935;SDS011;61085;48.804;9.228;2022-07-29T09:16:51;5.10;;;4.70;;
72935;SDS011;61085;48.804;9.228;2022-07-29T09:19:19;4.77;;;4.40;;
72935;SDS011;61085;48.804;9.228;2022-07-29T09:21:46;14.17;;;6.23;;
72935;SDS011;61085;48.804;9.228;2022-07-29T09:24:29;4.83;;;4.43;;
72935;SDS011;61085;48.804;9.228;2022-07-29T09:27:04;20.23;;;8.90;;
72935;SDS011;61085;48.804;9.228;2022-07-29T09:29:34;4.80;;;4.50;;
72935;SDS011;61085;48.804;9.228;2022-07-29T09:31:59;8.83;;;5.70;;
72935;SDS011;61085;48.804;9.228;2022-07-29T09:34:26;5.03;;;4.60;;
72935;SDS011;61085;48.804;9.228;2022-07-29T09:36:56;4.63;;;4.33;;
72935;SDS011;61085;48.804;9.228;2022-07-29T09:39:33;4.73;;;4.40;;
72935;SDS011;61085;48.804;9.228;2022-07-29T09:42:03;4.80;;;4.37;;
72935;SDS011;61085;48.804;9.228;2022-07-29T09:47:09;5.07;;;4.67;;
72935;SDS011;61085;48.804;9.228;2022-07-29T09:49:57;4.87;;;4.53;;
72935;SDS011;61085;48.804;9.228;2022-07-29T09:52:25;4.30;;;4.10;;
72935;SDS011;61085;48.804;9.228;2022-07-29T09:54:51;5.83;;;4.40;;
72935;SDS011;61085;48.804;9.228;2022-07-29T09:57:26;5.37;;;4.90;;
72935;SDS011;61085;48.804;9.228;2022-07-29T09:59:56;5.60;;;5.20;;
72935;SDS011;61085;48.804;9.228;2022-07-29T10:02:27;5.13;;;4.93;;
72935;SDS011;61085;48.804;9.228;2022-07-29T10:04:56;6.23;;;4.97;;
72935;SDS011;61085;48.804;9.228;2022-07-29T10:10:35;5.13;;;4.73;;
72935;SDS011;61085;48.804;9.228;2022-07-29T10:13:12;6.63;;;5.17;;
72935;SDS011;61085;48.804;9.228;2022-07-29T10:15:39;5.53;;;5.23;;
72935;SDS011;61085;48.804;9.228;2022-07-29T10:18:09;5.20;;;4.77;;
72935;SDS011;61085;48.804;9.228;2022-07-29T10:20:36;4.90;;;4.60;;
72935;SDS011;61085;48.804;9.228;2022-07-29T10:23:03;5.10;;;4.80;;
72935;SDS011;61085;48.804;9.228;2022-07-29T10:25:31;8.90;;;5.77;;
72935;SDS011;61085;48.804;9.228;2022-07-29T10:28:00;6.07;;;5.53;;
72935;SDS011;61085;48.804;9.228;2022-07-29T10:30:26;5.90;;;5.60;;
72935;SDS011;61085;48.804;9.228;2022-07-29T10:43:42;6.63;;;6.10;;
72935;SDS011;61085;48.804;9.228;2022-07-29T10:46:10;7.53;;;5.93;;
72935;SDS011;61085;48.804;9.228;2022-07-29T10:57:11;6.43;;;5.77;;
72935;SDS011;61085;48.804;9.228;2022-07-29T11:02:40;6.80;;;6.20;;
72935;SDS011;61085;48.804;9.228;2022-07-29T11:05:16;7.40;;;6.73;;
72935;SDS011;61085;48.804;9.228;2022-07-29T11:10:38;6.83;;;6.43;;
72935;SDS011;61085;48.804;9.228;2022-07-29T11:13:04;7.17;;;6.67;;
72935;SDS011;61085;48.804;9.228;2022-07-29T11:15:32;8.50;;;7.70;;
72935;SDS011;61085;48.804;9.228;2022-07-29T11:18:19;10.77;;;8.00;;
72935;SDS011;61085;48.804;9.228;2022-07-29T11:20:46;9.23;;;8.50;;
72935;SDS011;61085;48.804;9.228;2022-07-29T11:23:28;9.63;;;8.63;;
72935;SDS011;61085;48.804;9.228;2022-07-29T11:31:49;9.60;;;8.53;;
72935;SDS011;61085;48.804;9.228;2022-07-29T11:47:27;6.47;;;6.07;;
72935;SDS011;61085;48.804;9.228;2022-07-29T11:49:54;7.57;;;6.10;;
72935;SDS011;61085;48.804;9.228;2022-07-29T11:52:22;4.60;;;4.30;;
72935;SDS011;61085;48.804;9.228;2022-07-29T11:54:49;5.40;;;4.90;;
72935;SDS011;61085;48.804;9.228;2022-07-29T11:57:16;7.40;;;4.30;;
72935;SDS011;61085;48.804;9.228;2022-07-29T11:59:45;4.33;;;3.50;;
72935;SDS011;61085;48.804;9.228;2022-07-29T12:02:14;3.80;;;3.50;;
72935;SDS011;61085;48.804;9.228;2022-07-29T12:07:16;3.40;;;2.90;;
72935;SDS011;61085;48.804;9.228;2022-07-29T12:09:51;4.30;;;4.10;;
72935;SDS011;61085;48.804;9.228;2022-07-29T12:12:17;4.70;;;4.30;;
72935;SDS011;61085;48.804;9.228;2022-07-29T12:14:44;3.93;;;3.53;;
72935;SDS011;61085;48.804;9.228;2022-07-29T12:20:06;4.20;;;3.80;;
72935;SDS011;61085;48.804;9.228;2022-07-29T12:22:33;3.78;;;3.58;;
72935;SDS011;61085;48.804;9.228;2022-07-29T12:25:05;4.45;;;4.05;;
72935;SDS011;61085;48.804;9.228;2022-07-29T12:27:39;4.18;;;3.85;;
72935;SDS011;61085;48.804;9.228;2022-07-29T12:30:05;6.57;;;4.73;;
72935;SDS011;61085;48.804;9.228;2022-07-29T12:34:59;6.53;;;4.10;;
72935;SDS011;61085;48.804;9.228;2022-07-29T12:37:33;5.03;;;4.63;;
72935;SDS011;61085;48.804;9.228;2022-07-29T12:40:02;4.25;;;3.85;;
72935;SDS011;61085;48.804;9.228;2022-07-29T12:42:29;4.10;;;3.90;;
72935;SDS011;61085;48.804;9.228;2022-07-29T12:44:54;4.13;;;3.83;;
72935;SDS011;61085;48.804;9.228;2022-07-29T12:47:20;3.77;;;3.47;;
72935;SDS011;61085;48.804;9.228;2022-07-29T12:49:47;4.37;;;4.07;;
72935;SDS011;61085;48.804;9.228;2022-07-29T12:55:09;3.95;;;3.75;;
72935;SDS011;61085;48.804;9.228;2022-07-29T12:57:48;4.77;;;4.47;;
72935;SDS011;61085;48.804;9.228;2022-07-29T13:00:21;5.15;;;4.68;;
72935;SDS011;61085;48.804;9.228;2022-07-29T13:02:54;5.10;;;4.80;;
72935;SDS011;61085;48.804;9.228;2022-07-29T13:05:24;5.45;;;4.85;;
72935;SDS011;61085;48.804;9.228;2022-07-29T13:08:16;7.50;;;5.13;;
72935;SDS011;61085;48.804;9.228;2022-07-29T13:10:44;5.40;;;5.00;;
72935;SDS011;61085;48.804;9.228;2022-07-29T13:13:11;8.20;;;6.07;;
72935;SDS011;61085;48.804;9.228;2022-07-29T13:15:41;6.00;;;5.55;;
72935;SDS011;61085;48.804;9.228;2022-07-29T13:21:11;5.35;;;4.85;;
72935;SDS011;61085;48.804;9.228;2022-07-29T13:23:38;5.82;;;5.22;;
72935;SDS011;61085;48.804;9.228;2022-07-29T13:26:10;7.93;;;5.60;;
72935;SDS011;61085;48.804;9.228;2022-07-29T13:28:37;7.75;;;6.82;;
72935;SDS011;61085;48.804;9.228;2022-07-29T13:31:02;7.10;;;6.17;;
72935;SDS011;61085;48.804;9.228;2022-07-29T13:33:29;6.23;;;5.80;;
72935;SDS011;61085;48.804;9.228;2022-07-29T13:35:55;7.53;;;6.07;;
72935;SDS011;61085;48.804;9.228;2022-07-29T13:38:21;7.77;;;6.77;;
72935;SDS011;61085;48.804;9.228;2022-07-29T13:40:46;7.73;;;7.03;;
72935;SDS011;61085;48.804;9.228;2022-07-29T13:43:12;7.13;;;6.63;;
72935;SDS011;61085;48.804;9.228;2022-07-29T13:45:38;22.17;;;7.03;;
72935;SDS011;61085;48.804;9.228;2022-07-29T13:48:04;7.93;;;7.27;;
72935;SDS011;61085;48.804;9.228;2022-07-29T13:50:34;7.68;;;7.00;;
72935;SDS011;61085;48.804;9.228;2022-07-29T13:52:59;7.00;;;6.50;;
72935;SDS011;61085;48.804;9.228;2022-07-29T13:55:25;11.60;;;7.90;;
72935;SDS011;61085;48.804;9.228;2022-07-29T13:57:50;7.90;;;7.17;;
72935;SDS011;61085;48.804;9.228;2022-07-29T14:00:16;7.80;;;7.37;;
72935;SDS011;61085;48.804;9.228;2022-07-29T14:02:43;11.40;;;7.72;;
72935;SDS011;61085;48.804;9.228;2022-07-29T14:05:09;7.80;;;7.23;;
72935;SDS011;61085;48.804;9.228;2022-07-29T14:07:35;8.23;;;7.73;;
72935;SDS011;61085;48.804;9.228;2022-07-29T14:10:03;8.52;;;7.72;;
72935;SDS011;61085;48.804;9.228;2022-07-29T14:12:29;7.50;;;7.00;;
72935;SDS011;61085;48.804;9.228;2022-07-29T14:14:56;7.90;;;7.30;;
72935;SDS011;61085;48.804;9.228;2022-07-29T14:17:21;8.82;;;8.10;;
72935;SDS011;61085;48.804;9.228;2022-07-29T14:19:47;8.80;;;7.93;;
72935;SDS011;61085;48.804;9.228;2022-07-29T14:22:13;8.90;;;8.20;;
72935;SDS011;61085;48.804;9.228;2022-07-29T14:24:39;8.30;;;7.70;;
72935;SDS011;61085;48.804;9.228;2022-07-29T14:27:05;9.23;;;8.23;;
72935;SDS011;61085;48.804;9.228;2022-07-29T14:29:31;8.60;;;7.80;;
72935;SDS011;61085;48.804;9.228;2022-07-29T14:31:57;8.27;;;7.63;;
72935;SDS011;61085;48.804;9.228;2022-07-29T14:34:23;9.47;;;8.70;;
72935;SDS011;61085;48.804;9.228;2022-07-29T14:36:49;8.93;;;8.20;;
72935;SDS011;61085;48.804;9.228;2022-07-29T14:39:14;9.10;;;8.40;;
72935;SDS011;61085;48.804;9.228;2022-07-29T14:41:41;8.67;;;7.97;;
72935;SDS011;61085;48.804;9.228;2022-07-29T14:44:08;8.57;;;7.97;;
72935;SDS011;61085;48.804;9.228;2022-07-29T14:46:34;10.07;;;8.50;;
72935;SDS011;61085;48.804;9.228;2022-07-29T14:49:00;10.10;;;9.23;;
72935;SDS011;61085;48.804;9.228;2022-07-29T14:51:25;10.33;;;9.43;;
72935;SDS011;61085;48.804;9.228;2022-07-29T14:53:51;9.50;;;8.80;;
72935;SDS011;61085;48.804;9.228;2022-07-29T14:56:16;9.03;;;8.23;;
72935;SDS011;61085;48.804;9.228;2022-07-29T14:58:42;10.17;;;9.20;;
72935;SDS011;61085;48.804;9.228;2022-07-29T15:01:08;9.60;;;8.70;;
72935;SDS011;61085;48.804;9.228;2022-07-29T15:03:33;10.33;;;9.60;;
72935;SDS011;61085;48.804;9.228;2022-07-29T15:05:59;11.17;;;10.07;;
72935;SDS011;61085;48.804;9.228;2022-07-29T15:08:24;12.53;;;9.80;;
72935;SDS011;61085;48.804;9.228;2022-07-29T15:10:52;10.90;;;9.50;;
72935;SDS011;61085;48.804;9.228;2022-07-29T15:13:18;11.03;;;9.90;;
72935;SDS011;61085;48.804;9.228;2022-07-29T15:15:44;9.97;;;9.17;;
72935;SDS011;61085;48.804;9.228;2022-07-29T15:18:10;10.03;;;9.37;;
72935;SDS011;61085;48.804;9.228;2022-07-29T15:20:36;10.10;;;9.30;;
72935;SDS011;61085;48.804;9.228;2022-07-29T15:23:02;11.77;;;8.80;;
72935;SDS011;61085;48.804;9.228;2022-07-29T15:25:28;9.90;;;9.00;;
72935;SDS011;61085;48.804;9.228;2022-07-29T15:27:53;8.90;;;8.10;;
72935;SDS011;61085;48.804;9.228;2022-07-29T15:30:19;9.93;;;9.07;;
72935;SDS011;61085;48.804;9.228;2022-07-29T15:32:45;8.73;;;8.00;;
72935;SDS011;61085;48.804;9.228;2022-07-29T15:35:10;9.00;;;8.40;;
72935;SDS011;61085;48.804;9.228;2022-07-29T15:37:39;12.00;;;8.53;;
72935;SDS011;61085;48.804;9.228;2022-07-29T15:40:05;10.17;;;8.87;;
72935;SDS011;61085;48.804;9.228;2022-07-29T15:42:32;9.23;;;8.40;;
72935;SDS011;61085;48.804;9.228;2022-07-29T15:45:00;7.97;;;7.47;;
72935;SDS011;61085;48.804;9.228;2022-07-29T15:47:28;9.20;;;8.50;;
72935;SDS011;61085;48.804;9.228;2022-07-29T15:49:56;9.77;;;8.93;;
72935;SDS011;61085;48.804;9.228;2022-07-29T15:52:22;9.57;;;8.87;;
72935;SDS011;61085;48.804;9.228;2022-07-29T15:54:47;8.77;;;8.17;;
72935;SDS011;61085;48.804;9.228;2022-07-29T15:57:13;9.53;;;8.93;;
72935;SDS011;61085;48.804;9.228;2022-07-29T15:59:39;8.80;;;8.00;;
72935;SDS011;61085;48.804;9.228;2022-07-29T16:02:05;13.63;;;9.83;;
72935;SDS011;61085;48.804;9.228;2022-07-29T16:04:32;11.33;;;9.77;;
72935;SDS011;61085;48.804;9.228;2022-07-29T16:06:57;9.63;;;8.83;;
72935;SDS011;61085;48.804;9.228;2022-07-29T16:09:23;10.23;;;9.17;;
72935;SDS011;61085;48.804;9.228;2022-07-29T16:11:49;8.07;;;7.53;;
72935;SDS011;61085;48.804;9.228;2022-07-29T16:14:17;8.10;;;7.50;;
72935;SDS011;61085;48.804;9.228;2022-07-29T16:16:43;7.93;;;7.23;;
72935;SDS011;61085;48.804;9.228;2022-07-29T16:19:09;8.50;;;7.90;;